sensor_id;sensor_type;location;lat;lon;timestamp;P1;durP1;ratioP1;P2;durP2;ratioP2
78013;SDS011;67222;50.182;8.734;2023-04-23T05:31:09;9.13;;;5.93;;
78013;SDS011;67222;50.182;8.734;2023-04-23T05:33:35;8.80;;;5.72;;
78013;SDS011;67222;50.182;8.734;2023-04-23T05:36:00;8.30;;;5.30;;
78013;SDS011;67222;50.182;8.734;2023-04-23T05:38:26;8.82;;;5.32;;
78013;SDS011;67222;50.182;8.734;2023-04-23T05:40:51;9.63;;;5.73;;
78013;SDS011;67222;50.182;8.734;2023-04-23T05:43:16;8.85;;;5.68;;
78013;SDS011;67222;50.182;8.734;2023-04-23T05:45:42;8.43;;;5.53;;
78013;SDS011;67222;50.182;8.734;2023-04-23T05:48:07;8.48;;;5.07;;
78013;SDS011;67222;50.182;8.734;2023-04-23T05:50:33;9.15;;;5.05;;
78013;SDS011;67222;50.182;8.734;2023-04-23T05:52:58;6.90;;;4.70;;
78013;SDS011;67222;50.182;8.734;2023-04-23T05:55:23;6.57;;;4.47;;
78013;SDS011;67222;50.182;8.734;2023-04-23T05:57:49;7.40;;;4.68;;
78013;SDS011;67222;50.182;8.734;2023-04-23T06:00:14;9.38;;;4.85;;
78013;SDS011;67222;50.182;8.734;2023-04-23T06:02:41;8.02;;;4.72;;
78013;SDS011;67222;50.182;8.734;2023-04-23T06:05:06;9.02;;;4.85;;
78013;SDS011;67222;50.182;8.734;2023-04-23T06:07:33;7.63;;;4.55;;
78013;SDS011;67222;50.182;8.734;2023-04-23T06:09:58;7.88;;;4.80;;
78013;SDS011;67222;50.182;8.734;2023-04-23T06:12:24;8.48;;;4.75;;
78013;SDS011;67222;50.182;8.734;2023-04-23T06:14:51;7.45;;;4.97;;
78013;SDS011;67222;50.182;8.734;2023-04-23T06:17:16;8.05;;;4.80;;
78013;SDS011;67222;50.182;8.734;2023-04-23T06:19:42;7.10;;;4.25;;
78013;SDS011;67222;50.182;8.734;2023-04-23T06:22:07;9.90;;;4.67;;
78013;SDS011;67222;50.182;8.734;2023-04-23T06:24:32;6.47;;;4.45;;
78013;SDS011;67222;50.182;8.734;2023-04-23T06:26:58;6.10;;;4.30;;
78013;SDS011;67222;50.182;8.734;2023-04-23T06:29:23;7.32;;;4.40;;
78013;SDS011;67222;50.182;8.734;2023-04-23T06:31:48;7.03;;;4.18;;
78013;SDS011;67222;50.182;8.734;2023-04-23T06:34:13;8.07;;;4.87;;
78013;SDS011;67222;50.182;8.734;2023-04-23T06:36:39;7.07;;;4.30;;
78013;SDS011;67222;50.182;8.734;2023-04-23T06:39:04;6.20;;;4.47;;
78013;SDS011;67222;50.182;8.734;2023-04-23T06:41:30;8.15;;;4.82;;
78013;SDS011;67222;50.182;8.734;2023-04-23T06:43:55;8.63;;;4.60;;
78013;SDS011;67222;50.182;8.734;2023-04-23T06:46:20;7.93;;;4.83;;
78013;SDS011;67222;50.182;8.734;2023-04-23T06:48:46;5.65;;;3.92;;
78013;SDS011;67222;50.182;8.734;2023-04-23T06:51:11;7.10;;;4.85;;
78013;SDS011;67222;50.182;8.734;2023-04-23T06:53:36;6.90;;;4.50;;
78013;SDS011;67222;50.182;8.734;2023-04-23T06:56:02;8.85;;;4.85;;
78013;SDS011;67222;50.182;8.734;2023-04-23T06:58:27;7.25;;;4.25;;
78013;SDS011;67222;50.182;8.734;2023-04-23T07:03:26;5.80;;;4.00;;
78013;SDS011;67222;50.182;8.734;2023-04-23T07:05:52;8.95;;;5.13;;
78013;SDS011;67222;50.182;8.734;2023-04-23T07:08:17;7.65;;;5.25;;
78013;SDS011;67222;50.182;8.734;2023-04-23T07:10:44;8.50;;;5.10;;
78013;SDS011;67222;50.182;8.734;2023-04-23T07:13:10;6.22;;;4.57;;
78013;SDS011;67222;50.182;8.734;2023-04-23T07:15:35;6.00;;;4.18;;
78013;SDS011;67222;50.182;8.734;2023-04-23T07:18:01;7.93;;;4.82;;
78013;SDS011;67222;50.182;8.734;2023-04-23T07:20:27;6.75;;;4.70;;
78013;SDS011;67222;50.182;8.734;2023-04-23T07:22:52;7.13;;;5.13;;
78013;SDS011;67222;50.182;8.734;2023-04-23T07:25:18;6.90;;;4.50;;
78013;SDS011;67222;50.182;8.734;2023-04-23T07:27:43;7.73;;;4.67;;
78013;SDS011;67222;50.182;8.734;2023-04-23T07:30:08;6.30;;;4.50;;
78013;SDS011;67222;50.182;8.734;2023-04-23T07:32:34;6.45;;;4.97;;
78013;SDS011;67222;50.182;8.734;2023-04-23T07:34:59;6.53;;;4.67;;
78013;SDS011;67222;50.182;8.734;2023-04-23T07:37:25;7.57;;;4.80;;
78013;SDS011;67222;50.182;8.734;2023-04-23T07:39:50;5.72;;;4.40;;
78013;SDS011;67222;50.182;8.734;2023-04-23T07:42:17;7.43;;;4.97;;
78013;SDS011;67222;50.182;8.734;2023-04-23T07:44:42;6.17;;;4.80;;
78013;SDS011;67222;50.182;8.734;2023-04-23T07:47:08;7.03;;;4.27;;
78013;SDS011;67222;50.182;8.734;2023-04-23T07:49:33;7.20;;;5.22;;
78013;SDS011;67222;50.182;8.734;2023-04-23T07:51:58;6.53;;;4.70;;
78013;SDS011;67222;50.182;8.734;2023-04-23T07:54:24;6.50;;;4.40;;
78013;SDS011;67222;50.182;8.734;2023-04-23T07:56:49;6.22;;;4.72;;
78013;SDS011;67222;50.182;8.734;2023-04-23T07:59:14;6.88;;;4.85;;
78013;SDS011;67222;50.182;8.734;2023-04-23T08:01:40;6.83;;;4.67;;
78013;SDS011;67222;50.182;8.734;2023-04-23T08:04:06;7.20;;;4.65;;
78013;SDS011;67222;50.182;8.734;2023-04-23T08:06:31;6.22;;;4.70;;
78013;SDS011;67222;50.182;8.734;2023-04-23T08:08:59;6.32;;;4.53;;
78013;SDS011;67222;50.182;8.734;2023-04-23T08:11:25;7.05;;;3.95;;
78013;SDS011;67222;50.182;8.734;2023-04-23T08:13:50;5.22;;;3.83;;
78013;SDS011;67222;50.182;8.734;2023-04-23T08:16:15;6.17;;;4.10;;
78013;SDS011;67222;50.182;8.734;2023-04-23T08:18:41;7.93;;;3.80;;
78013;SDS011;67222;50.182;8.734;2023-04-23T08:21:06;7.20;;;4.30;;
78013;SDS011;67222;50.182;8.734;2023-04-23T08:23:31;5.87;;;4.00;;
78013;SDS011;67222;50.182;8.734;2023-04-23T08:25:57;6.00;;;4.00;;
78013;SDS011;67222;50.182;8.734;2023-04-23T08:28:22;6.27;;;3.60;;
78013;SDS011;67222;50.182;8.734;2023-04-23T08:30:47;5.63;;;3.87;;
78013;SDS011;67222;50.182;8.734;2023-04-23T08:33:13;6.13;;;3.75;;
78013;SDS011;67222;50.182;8.734;2023-04-23T08:35:38;7.68;;;4.22;;
78013;SDS011;67222;50.182;8.734;2023-04-23T08:38:04;5.97;;;3.88;;
78013;SDS011;67222;50.182;8.734;2023-04-23T08:40:30;8.43;;;4.20;;
78013;SDS011;67222;50.182;8.734;2023-04-23T08:45:34;7.63;;;4.00;;
78013;SDS011;67222;50.182;8.734;2023-04-23T08:48:05;7.65;;;4.85;;
78013;SDS011;67222;50.182;8.734;2023-04-23T08:50:31;7.30;;;4.65;;
78013;SDS011;67222;50.182;8.734;2023-04-23T08:52:57;8.82;;;4.63;;
78013;SDS011;67222;50.182;8.734;2023-04-23T08:55:22;7.72;;;4.60;;
78013;SDS011;67222;50.182;8.734;2023-04-23T08:57:48;7.45;;;4.32;;
78013;SDS011;67222;50.182;8.734;2023-04-23T09:00:15;7.68;;;4.60;;
78013;SDS011;67222;50.182;8.734;2023-04-23T09:02:43;5.63;;;4.05;;
78013;SDS011;67222;50.182;8.734;2023-04-23T09:05:10;6.40;;;3.72;;
78013;SDS011;67222;50.182;8.734;2023-04-23T09:07:36;8.25;;;4.25;;
78013;SDS011;67222;50.182;8.734;2023-04-23T09:10:05;5.70;;;3.78;;
78013;SDS011;67222;50.182;8.734;2023-04-23T09:12:34;6.50;;;4.05;;
78013;SDS011;67222;50.182;8.734;2023-04-23T09:15:01;5.00;;;3.55;;
78013;SDS011;67222;50.182;8.734;2023-04-23T09:17:27;5.55;;;3.53;;
78013;SDS011;67222;50.182;8.734;2023-04-23T09:19:53;6.03;;;3.53;;
78013;SDS011;67222;50.182;8.734;2023-04-23T09:25:21;5.30;;;3.53;;
78013;SDS011;67222;50.182;8.734;2023-04-23T09:27:48;4.97;;;3.30;;
78013;SDS011;67222;50.182;8.734;2023-04-23T09:30:14;5.90;;;3.47;;
78013;SDS011;67222;50.182;8.734;2023-04-23T09:32:41;5.25;;;3.47;;
78013;SDS011;67222;50.182;8.734;2023-04-23T09:35:08;5.65;;;3.17;;
78013;SDS011;67222;50.182;8.734;2023-04-23T09:40:05;5.15;;;2.30;;
78013;SDS011;67222;50.182;8.734;2023-04-23T09:42:32;6.20;;;2.85;;
78013;SDS011;67222;50.182;8.734;2023-04-23T09:44:59;3.33;;;2.10;;
78013;SDS011;67222;50.182;8.734;2023-04-23T09:47:30;3.60;;;2.40;;
78013;SDS011;67222;50.182;8.734;2023-04-23T09:49:56;3.33;;;2.40;;
78013;SDS011;67222;50.182;8.734;2023-04-23T09:52:23;2.67;;;1.98;;
78013;SDS011;67222;50.182;8.734;2023-04-23T09:54:49;4.38;;;2.20;;
78013;SDS011;67222;50.182;8.734;2023-04-23T09:57:14;5.25;;;2.28;;
78013;SDS011;67222;50.182;8.734;2023-04-23T09:59:40;2.75;;;2.03;;
78013;SDS011;67222;50.182;8.734;2023-04-23T10:02:06;3.50;;;2.20;;
78013;SDS011;67222;50.182;8.734;2023-04-23T10:04:33;3.88;;;2.25;;
78013;SDS011;67222;50.182;8.734;2023-04-23T10:07:00;3.70;;;2.00;;
78013;SDS011;67222;50.182;8.734;2023-04-23T10:09:32;2.90;;;2.17;;
78013;SDS011;67222;50.182;8.734;2023-04-23T10:11:58;2.97;;;1.90;;
78013;SDS011;67222;50.182;8.734;2023-04-23T10:14:26;3.92;;;2.30;;
78013;SDS011;67222;50.182;8.734;2023-04-23T10:16:56;3.15;;;2.22;;
78013;SDS011;67222;50.182;8.734;2023-04-23T10:19:23;3.70;;;2.35;;
78013;SDS011;67222;50.182;8.734;2023-04-23T10:21:54;5.40;;;2.40;;
78013;SDS011;67222;50.182;8.734;2023-04-23T10:24:33;3.35;;;2.15;;
78013;SDS011;67222;50.182;8.734;2023-04-23T10:27:02;4.05;;;2.33;;
78013;SDS011;67222;50.182;8.734;2023-04-23T10:29:30;3.13;;;2.03;;
78013;SDS011;67222;50.182;8.734;2023-04-23T10:31:57;3.58;;;1.85;;
78013;SDS011;67222;50.182;8.734;2023-04-23T10:36:50;3.58;;;2.00;;
78013;SDS011;67222;50.182;8.734;2023-04-23T10:39:18;2.78;;;1.90;;
78013;SDS011;67222;50.182;8.734;2023-04-23T10:41:44;2.55;;;1.70;;
78013;SDS011;67222;50.182;8.734;2023-04-23T10:44:13;3.05;;;1.70;;
78013;SDS011;67222;50.182;8.734;2023-04-23T10:46:49;4.20;;;1.60;;
78013;SDS011;67222;50.182;8.734;2023-04-23T10:49:21;3.05;;;1.70;;
78013;SDS011;67222;50.182;8.734;2023-04-23T10:51:48;2.85;;;1.55;;
78013;SDS011;67222;50.182;8.734;2023-04-23T10:54:14;2.33;;;1.50;;
78013;SDS011;67222;50.182;8.734;2023-04-23T10:56:40;2.85;;;1.70;;
78013;SDS011;67222;50.182;8.734;2023-04-23T10:59:27;3.33;;;1.80;;
78013;SDS011;67222;50.182;8.734;2023-04-23T11:02:04;3.90;;;1.77;;
78013;SDS011;67222;50.182;8.734;2023-04-23T11:04:33;3.83;;;1.90;;
78013;SDS011;67222;50.182;8.734;2023-04-23T11:07:09;4.97;;;2.13;;
78013;SDS011;67222;50.182;8.734;2023-04-23T11:09:48;3.45;;;2.00;;
78013;SDS011;67222;50.182;8.734;2023-04-23T11:14:45;3.45;;;1.58;;
78013;SDS011;67222;50.182;8.734;2023-04-23T11:17:12;3.08;;;1.73;;
78013;SDS011;67222;50.182;8.734;2023-04-23T11:19:40;2.63;;;1.55;;
78013;SDS011;67222;50.182;8.734;2023-04-23T11:22:13;2.97;;;1.80;;
78013;SDS011;67222;50.182;8.734;2023-04-23T11:24:42;4.18;;;1.90;;
78013;SDS011;67222;50.182;8.734;2023-04-23T11:27:13;3.40;;;2.20;;
78013;SDS011;67222;50.182;8.734;2023-04-23T11:29:44;2.60;;;1.70;;
78013;SDS011;67222;50.182;8.734;2023-04-23T11:32:15;3.40;;;1.77;;
78013;SDS011;67222;50.182;8.734;2023-04-23T11:34:45;3.17;;;1.50;;
78013;SDS011;67222;50.182;8.734;2023-04-23T11:37:12;3.88;;;1.90;;
78013;SDS011;67222;50.182;8.734;2023-04-23T11:39:39;3.20;;;1.80;;
78013;SDS011;67222;50.182;8.734;2023-04-23T11:42:09;3.42;;;1.90;;
78013;SDS011;67222;50.182;8.734;2023-04-23T11:44:36;3.03;;;1.70;;
78013;SDS011;67222;50.182;8.734;2023-04-23T11:47:02;2.80;;;1.65;;
78013;SDS011;67222;50.182;8.734;2023-04-23T11:49:28;3.30;;;1.63;;
78013;SDS011;67222;50.182;8.734;2023-04-23T11:51:53;3.10;;;1.90;;
78013;SDS011;67222;50.182;8.734;2023-04-23T11:54:23;2.75;;;1.80;;
78013;SDS011;67222;50.182;8.734;2023-04-23T11:56:51;4.03;;;1.90;;
78013;SDS011;67222;50.182;8.734;2023-04-23T11:59:18;3.15;;;1.85;;
78013;SDS011;67222;50.182;8.734;2023-04-23T12:01:47;2.83;;;1.70;;
78013;SDS011;67222;50.182;8.734;2023-04-23T12:04:21;2.83;;;1.65;;
78013;SDS011;67222;50.182;8.734;2023-04-23T12:06:48;2.97;;;1.83;;
78013;SDS011;67222;50.182;8.734;2023-04-23T12:09:15;4.32;;;1.90;;
78013;SDS011;67222;50.182;8.734;2023-04-23T12:11:43;4.88;;;2.33;;
78013;SDS011;67222;50.182;8.734;2023-04-23T12:14:10;5.28;;;2.88;;
78013;SDS011;67222;50.182;8.734;2023-04-23T12:16:40;3.40;;;2.38;;
78013;SDS011;67222;50.182;8.734;2023-04-23T12:19:16;5.25;;;2.97;;
78013;SDS011;67222;50.182;8.734;2023-04-23T12:22:01;4.90;;;2.45;;
78013;SDS011;67222;50.182;8.734;2023-04-23T12:24:44;2.60;;;1.73;;
78013;SDS011;67222;50.182;8.734;2023-04-23T12:27:18;3.20;;;1.90;;
78013;SDS011;67222;50.182;8.734;2023-04-23T12:29:45;3.60;;;2.22;;
78013;SDS011;67222;50.182;8.734;2023-04-23T12:32:15;4.47;;;1.60;;
78013;SDS011;67222;50.182;8.734;2023-04-23T12:34:50;2.83;;;1.45;;
78013;SDS011;67222;50.182;8.734;2023-04-23T12:37:22;5.38;;;2.10;;
78013;SDS011;67222;50.182;8.734;2023-04-23T12:39:50;6.80;;;5.82;;
78013;SDS011;67222;50.182;8.734;2023-04-23T12:42:16;3.13;;;1.80;;
78013;SDS011;67222;50.182;8.734;2023-04-23T12:44:42;3.20;;;2.00;;
78013;SDS011;67222;50.182;8.734;2023-04-23T12:47:07;3.20;;;1.80;;
78013;SDS011;67222;50.182;8.734;2023-04-23T12:49:35;2.90;;;1.80;;
78013;SDS011;67222;50.182;8.734;2023-04-23T12:52:03;3.85;;;2.28;;
78013;SDS011;67222;50.182;8.734;2023-04-23T12:54:30;3.85;;;2.05;;
78013;SDS011;67222;50.182;8.734;2023-04-23T12:56:57;2.63;;;1.60;;
78013;SDS011;67222;50.182;8.734;2023-04-23T12:59:23;3.20;;;1.60;;
78013;SDS011;67222;50.182;8.734;2023-04-23T13:01:49;2.92;;;1.95;;
78013;SDS011;67222;50.182;8.734;2023-04-23T13:04:15;3.78;;;1.60;;
78013;SDS011;67222;50.182;8.734;2023-04-23T13:06:40;5.90;;;2.00;;
78013;SDS011;67222;50.182;8.734;2023-04-23T13:09:06;3.63;;;1.90;;
78013;SDS011;67222;50.182;8.734;2023-04-23T13:14:00;3.90;;;1.70;;
78013;SDS011;67222;50.182;8.734;2023-04-23T13:16:25;3.53;;;1.70;;
78013;SDS011;67222;50.182;8.734;2023-04-23T13:18:50;4.18;;;1.80;;
78013;SDS011;67222;50.182;8.734;2023-04-23T13:21:16;6.07;;;1.52;;
78013;SDS011;67222;50.182;8.734;2023-04-23T13:23:41;3.67;;;1.67;;
78013;SDS011;67222;50.182;8.734;2023-04-23T13:26:07;3.60;;;1.70;;
78013;SDS011;67222;50.182;8.734;2023-04-23T13:28:33;2.97;;;1.60;;
78013;SDS011;67222;50.182;8.734;2023-04-23T13:30:59;2.58;;;1.70;;
78013;SDS011;67222;50.182;8.734;2023-04-23T13:33:25;2.72;;;1.80;;
78013;SDS011;67222;50.182;8.734;2023-04-23T13:35:51;2.50;;;1.50;;
78013;SDS011;67222;50.182;8.734;2023-04-23T13:38:16;2.20;;;1.30;;
78013;SDS011;67222;50.182;8.734;2023-04-23T13:40:41;2.58;;;1.30;;
78013;SDS011;67222;50.182;8.734;2023-04-23T13:43:07;2.17;;;1.10;;
78013;SDS011;67222;50.182;8.734;2023-04-23T13:45:32;2.83;;;1.10;;
78013;SDS011;67222;50.182;8.734;2023-04-23T13:47:57;2.87;;;1.40;;
78013;SDS011;67222;50.182;8.734;2023-04-23T13:50:25;2.63;;;1.20;;
78013;SDS011;67222;50.182;8.734;2023-04-23T13:52:50;2.60;;;1.30;;
78013;SDS011;67222;50.182;8.734;2023-04-23T13:55:15;2.73;;;1.30;;
78013;SDS011;67222;50.182;8.734;2023-04-23T13:57:41;3.27;;;1.30;;
78013;SDS011;67222;50.182;8.734;2023-04-23T14:00:06;3.27;;;1.30;;
78013;SDS011;67222;50.182;8.734;2023-04-23T14:02:32;2.50;;;1.13;;
78013;SDS011;67222;50.182;8.734;2023-04-23T14:04:57;2.00;;;1.23;;
78013;SDS011;67222;50.182;8.734;2023-04-23T14:07:22;2.00;;;1.10;;
78013;SDS011;67222;50.182;8.734;2023-04-23T14:09:48;2.07;;;1.00;;
78013;SDS011;67222;50.182;8.734;2023-04-23T14:12:16;3.88;;;1.15;;
78013;SDS011;67222;50.182;8.734;2023-04-23T14:14:42;1.52;;;0.80;;
78013;SDS011;67222;50.182;8.734;2023-04-23T14:17:08;1.48;;;0.90;;
78013;SDS011;67222;50.182;8.734;2023-04-23T14:19:33;2.08;;;0.82;;
78013;SDS011;67222;50.182;8.734;2023-04-23T14:22:01;2.38;;;0.90;;
78013;SDS011;67222;50.182;8.734;2023-04-23T14:24:27;1.45;;;0.80;;
78013;SDS011;67222;50.182;8.734;2023-04-23T14:26:56;2.70;;;0.98;;
78013;SDS011;67222;50.182;8.734;2023-04-23T14:32:19;2.00;;;1.05;;
78013;SDS011;67222;50.182;8.734;2023-04-23T14:34:45;1.75;;;0.88;;
78013;SDS011;67222;50.182;8.734;2023-04-23T14:37:10;1.80;;;0.90;;
78013;SDS011;67222;50.182;8.734;2023-04-23T14:39:36;1.90;;;0.80;;
78013;SDS011;67222;50.182;8.734;2023-04-23T14:42:01;1.65;;;0.70;;
78013;SDS011;67222;50.182;8.734;2023-04-23T14:44:27;1.83;;;0.80;;
78013;SDS011;67222;50.182;8.734;2023-04-23T14:46:52;1.70;;;0.70;;
78013;SDS011;67222;50.182;8.734;2023-04-23T14:49:19;2.00;;;0.80;;
78013;SDS011;67222;50.182;8.734;2023-04-23T14:51:45;1.77;;;0.80;;
78013;SDS011;67222;50.182;8.734;2023-04-23T14:54:11;1.50;;;0.70;;
78013;SDS011;67222;50.182;8.734;2023-04-23T14:56:36;1.08;;;0.70;;
78013;SDS011;67222;50.182;8.734;2023-04-23T14:59:02;1.20;;;0.60;;
78013;SDS011;67222;50.182;8.734;2023-04-23T15:01:28;1.42;;;0.60;;
78013;SDS011;67222;50.182;8.734;2023-04-23T15:03:54;2.22;;;0.60;;
78013;SDS011;67222;50.182;8.734;2023-04-23T15:06:20;1.50;;;0.90;;
78013;SDS011;67222;50.182;8.734;2023-04-23T15:08:45;2.03;;;0.85;;
78013;SDS011;67222;50.182;8.734;2023-04-23T15:11:11;2.50;;;0.93;;
78013;SDS011;67222;50.182;8.734;2023-04-23T15:13:54;1.80;;;0.68;;
78013;SDS011;67222;50.182;8.734;2023-04-23T15:16:26;2.05;;;0.77;;
78013;SDS011;67222;50.182;8.734;2023-04-23T15:18:55;1.83;;;1.00;;
78013;SDS011;67222;50.182;8.734;2023-04-23T15:21:21;1.65;;;0.80;;
78013;SDS011;67222;50.182;8.734;2023-04-23T15:23:46;1.90;;;0.80;;
78013;SDS011;67222;50.182;8.734;2023-04-23T15:26:12;2.57;;;0.93;;
78013;SDS011;67222;50.182;8.734;2023-04-23T15:28:37;1.70;;;0.80;;
78013;SDS011;67222;50.182;8.734;2023-04-23T15:31:03;1.75;;;0.77;;
78013;SDS011;67222;50.182;8.734;2023-04-23T15:33:29;1.45;;;0.70;;
78013;SDS011;67222;50.182;8.734;2023-04-23T15:35:54;2.23;;;1.00;;
78013;SDS011;67222;50.182;8.734;2023-04-23T15:38:20;1.33;;;0.80;;
78013;SDS011;67222;50.182;8.734;2023-04-23T15:40:46;1.50;;;0.63;;
78013;SDS011;67222;50.182;8.734;2023-04-23T15:43:13;1.80;;;0.70;;
78013;SDS011;67222;50.182;8.734;2023-04-23T15:45:40;2.55;;;0.80;;
78013;SDS011;67222;50.182;8.734;2023-04-23T15:48:06;1.77;;;0.75;;
78013;SDS011;67222;50.182;8.734;2023-04-23T15:50:32;1.58;;;0.70;;
78013;SDS011;67222;50.182;8.734;2023-04-23T15:52:58;1.90;;;1.00;;
78013;SDS011;67222;50.182;8.734;2023-04-23T15:55:25;1.90;;;0.93;;
78013;SDS011;67222;50.182;8.734;2023-04-23T15:57:51;3.40;;;1.65;;
78013;SDS011;67222;50.182;8.734;2023-04-23T16:00:16;3.13;;;0.87;;
78013;SDS011;67222;50.182;8.734;2023-04-23T16:02:42;1.13;;;0.60;;
78013;SDS011;67222;50.182;8.734;2023-04-23T16:05:08;2.38;;;0.95;;
78013;SDS011;67222;50.182;8.734;2023-04-23T16:07:34;2.47;;;1.17;;
78013;SDS011;67222;50.182;8.734;2023-04-23T16:09:59;2.13;;;1.00;;
78013;SDS011;67222;50.182;8.734;2023-04-23T16:12:26;2.88;;;0.80;;
78013;SDS011;67222;50.182;8.734;2023-04-23T16:14:51;2.33;;;0.97;;
78013;SDS011;67222;50.182;8.734;2023-04-23T16:17:16;1.70;;;0.80;;
78013;SDS011;67222;50.182;8.734;2023-04-23T16:19:42;1.67;;;0.80;;
78013;SDS011;67222;50.182;8.734;2023-04-23T16:22:07;2.67;;;0.90;;
78013;SDS011;67222;50.182;8.734;2023-04-23T16:24:33;1.38;;;0.70;;
78013;SDS011;67222;50.182;8.734;2023-04-23T16:26:58;1.73;;;0.70;;
78013;SDS011;67222;50.182;8.734;2023-04-23T16:29:26;2.55;;;0.90;;
78013;SDS011;67222;50.182;8.734;2023-04-23T16:31:51;1.50;;;0.70;;
78013;SDS011;67222;50.182;8.734;2023-04-23T16:34:17;0.70;;;0.50;;
78013;SDS011;67222;50.182;8.734;2023-04-23T16:36:42;2.07;;;0.90;;
78013;SDS011;67222;50.182;8.734;2023-04-23T16:39:07;1.45;;;0.80;;
78013;SDS011;67222;50.182;8.734;2023-04-23T16:41:32;2.00;;;0.80;;
78013;SDS011;67222;50.182;8.734;2023-04-23T16:43:58;1.93;;;1.10;;
78013;SDS011;67222;50.182;8.734;2023-04-23T16:46:23;1.37;;;0.73;;
78013;SDS011;67222;50.182;8.734;2023-04-23T16:48:53;2.80;;;1.20;;
78013;SDS011;67222;50.182;8.734;2023-04-23T16:51:19;2.80;;;1.30;;
78013;SDS011;67222;50.182;8.734;2023-04-23T16:53:44;3.13;;;1.40;;
78013;SDS011;67222;50.182;8.734;2023-04-23T16:56:10;3.10;;;1.33;;
78013;SDS011;67222;50.182;8.734;2023-04-23T16:58:35;2.53;;;1.10;;
78013;SDS011;67222;50.182;8.734;2023-04-23T17:01:00;3.37;;;1.60;;
78013;SDS011;67222;50.182;8.734;2023-04-23T17:03:26;4.57;;;1.60;;
78013;SDS011;67222;50.182;8.734;2023-04-23T17:05:53;2.33;;;1.30;;
78013;SDS011;67222;50.182;8.734;2023-04-23T17:08:24;4.03;;;1.63;;
78013;SDS011;67222;50.182;8.734;2023-04-23T17:10:49;3.15;;;1.50;;
78013;SDS011;67222;50.182;8.734;2023-04-23T17:13:16;2.58;;;1.30;;
78013;SDS011;67222;50.182;8.734;2023-04-23T17:15:41;3.20;;;1.80;;
78013;SDS011;67222;50.182;8.734;2023-04-23T17:18:07;2.60;;;1.52;;
78013;SDS011;67222;50.182;8.734;2023-04-23T17:20:32;2.57;;;1.37;;
78013;SDS011;67222;50.182;8.734;2023-04-23T17:22:59;2.70;;;1.55;;
78013;SDS011;67222;50.182;8.734;2023-04-23T17:25:25;3.63;;;1.45;;
78013;SDS011;67222;50.182;8.734;2023-04-23T17:27:50;3.40;;;1.00;;
78013;SDS011;67222;50.182;8.734;2023-04-23T17:30:15;4.17;;;1.73;;
78013;SDS011;67222;50.182;8.734;2023-04-23T17:32:41;3.27;;;1.60;;
78013;SDS011;67222;50.182;8.734;2023-04-23T17:35:06;4.72;;;1.33;;
78013;SDS011;67222;50.182;8.734;2023-04-23T17:37:32;4.57;;;1.67;;
78013;SDS011;67222;50.182;8.734;2023-04-23T17:39:57;2.47;;;1.40;;
78013;SDS011;67222;50.182;8.734;2023-04-23T17:42:23;2.23;;;1.40;;
78013;SDS011;67222;50.182;8.734;2023-04-23T17:44:48;3.37;;;1.40;;
78013;SDS011;67222;50.182;8.734;2023-04-23T17:47:13;2.97;;;1.60;;
78013;SDS011;67222;50.182;8.734;2023-04-23T17:49:38;4.60;;;2.00;;
78013;SDS011;67222;50.182;8.734;2023-04-23T17:52:04;3.33;;;1.48;;
78013;SDS011;67222;50.182;8.734;2023-04-23T17:54:31;3.28;;;1.50;;
78013;SDS011;67222;50.182;8.734;2023-04-23T17:56:56;3.45;;;2.03;;
78013;SDS011;67222;50.182;8.734;2023-04-23T17:59:21;4.73;;;1.80;;
78013;SDS011;67222;50.182;8.734;2023-04-23T18:01:47;3.05;;;1.42;;
78013;SDS011;67222;50.182;8.734;2023-04-23T18:04:13;3.35;;;1.50;;
78013;SDS011;67222;50.182;8.734;2023-04-23T18:06:38;2.05;;;1.05;;
78013;SDS011;67222;50.182;8.734;2023-04-23T18:09:03;2.50;;;1.17;;
78013;SDS011;67222;50.182;8.734;2023-04-23T18:11:29;3.13;;;1.30;;
78013;SDS011;67222;50.182;8.734;2023-04-23T18:13:54;2.17;;;1.15;;
78013;SDS011;67222;50.182;8.734;2023-04-23T18:16:19;2.45;;;1.20;;
78013;SDS011;67222;50.182;8.734;2023-04-23T18:18:45;3.13;;;1.50;;
78013;SDS011;67222;50.182;8.734;2023-04-23T18:21:10;2.80;;;1.30;;
78013;SDS011;67222;50.182;8.734;2023-04-23T18:23:38;3.38;;;1.60;;
78013;SDS011;67222;50.182;8.734;2023-04-23T18:26:04;2.50;;;1.13;;
78013;SDS011;67222;50.182;8.734;2023-04-23T18:28:29;3.90;;;1.13;;
78013;SDS011;67222;50.182;8.734;2023-04-23T18:30:55;2.25;;;1.00;;
78013;SDS011;67222;50.182;8.734;2023-04-23T18:33:35;3.05;;;1.33;;
78013;SDS011;67222;50.182;8.734;2023-04-23T18:36:18;2.78;;;1.20;;
78013;SDS011;67222;50.182;8.734;2023-04-23T18:38:48;2.63;;;1.17;;
78013;SDS011;67222;50.182;8.734;2023-04-23T18:41:13;2.70;;;1.15;;
78013;SDS011;67222;50.182;8.734;2023-04-23T18:43:39;2.30;;;0.98;;
78013;SDS011;67222;50.182;8.734;2023-04-23T18:46:04;1.77;;;0.77;;
78013;SDS011;67222;50.182;8.734;2023-04-23T18:51:04;2.90;;;1.10;;
78013;SDS011;67222;50.182;8.734;2023-04-23T18:53:57;1.55;;;0.90;;
78013;SDS011;67222;50.182;8.734;2023-04-23T18:56:23;1.73;;;0.82;;
78013;SDS011;67222;50.182;8.734;2023-04-23T18:58:49;2.20;;;0.85;;
78013;SDS011;67222;50.182;8.734;2023-04-23T19:01:14;2.20;;;1.10;;
78013;SDS011;67222;50.182;8.734;2023-04-23T19:03:40;1.90;;;0.85;;
78013;SDS011;67222;50.182;8.734;2023-04-23T19:06:05;4.03;;;1.60;;
78013;SDS011;67222;50.182;8.734;2023-04-23T19:08:32;2.20;;;0.93;;
78013;SDS011;67222;50.182;8.734;2023-04-23T19:10:58;2.28;;;1.00;;
78013;SDS011;67222;50.182;8.734;2023-04-23T19:13:24;3.03;;;0.80;;
78013;SDS011;67222;50.182;8.734;2023-04-23T19:15:49;1.77;;;0.93;;
78013;SDS011;67222;50.182;8.734;2023-04-23T19:18:15;3.83;;;1.00;;
78013;SDS011;67222;50.182;8.734;2023-04-23T19:20:41;1.52;;;0.75;;
78013;SDS011;67222;50.182;8.734;2023-04-23T19:23:07;2.55;;;1.00;;
78013;SDS011;67222;50.182;8.734;2023-04-23T19:25:33;2.70;;;1.05;;
78013;SDS011;67222;50.182;8.734;2023-04-23T19:27:58;1.60;;;0.88;;
78013;SDS011;67222;50.182;8.734;2023-04-23T19:30:24;2.80;;;0.98;;
78013;SDS011;67222;50.182;8.734;2023-04-23T19:32:49;2.88;;;1.00;;
78013;SDS011;67222;50.182;8.734;2023-04-23T19:35:16;2.42;;;1.23;;
78013;SDS011;67222;50.182;8.734;2023-04-23T19:37:41;2.47;;;1.10;;
78013;SDS011;67222;50.182;8.734;2023-04-23T19:40:07;2.47;;;1.00;;
78013;SDS011;67222;50.182;8.734;2023-04-23T19:42:33;1.88;;;0.82;;
78013;SDS011;67222;50.182;8.734;2023-04-23T19:44:58;2.87;;;1.10;;
78013;SDS011;67222;50.182;8.734;2023-04-23T19:47:23;3.37;;;1.27;;
78013;SDS011;67222;50.182;8.734;2023-04-23T19:49:49;2.25;;;1.00;;
78013;SDS011;67222;50.182;8.734;2023-04-23T19:52:16;1.70;;;1.00;;
78013;SDS011;67222;50.182;8.734;2023-04-23T19:54:45;2.30;;;0.85;;
78013;SDS011;67222;50.182;8.734;2023-04-23T19:57:13;2.60;;;1.10;;
78013;SDS011;67222;50.182;8.734;2023-04-23T19:59:46;2.03;;;0.98;;
78013;SDS011;67222;50.182;8.734;2023-04-23T20:02:11;3.13;;;1.00;;
78013;SDS011;67222;50.182;8.734;2023-04-23T20:04:37;3.75;;;1.20;;
78013;SDS011;67222;50.182;8.734;2023-04-23T20:07:03;2.15;;;1.00;;
78013;SDS011;67222;50.182;8.734;2023-04-23T20:09:28;2.77;;;1.10;;
78013;SDS011;67222;50.182;8.734;2023-04-23T20:11:53;2.83;;;1.10;;
78013;SDS011;67222;50.182;8.734;2023-04-23T20:14:19;1.70;;;1.00;;
78013;SDS011;67222;50.182;8.734;2023-04-23T20:16:44;2.43;;;1.23;;
78013;SDS011;67222;50.182;8.734;2023-04-23T20:19:10;2.30;;;1.08;;
78013;SDS011;67222;50.182;8.734;2023-04-23T20:21:39;2.35;;;1.25;;
78013;SDS011;67222;50.182;8.734;2023-04-23T20:24:06;2.05;;;1.10;;
78013;SDS011;67222;50.182;8.734;2023-04-23T20:26:37;2.08;;;1.00;;
78013;SDS011;67222;50.182;8.734;2023-04-23T20:29:04;3.70;;;1.10;;
78013;SDS011;67222;50.182;8.734;2023-04-23T20:31:29;2.60;;;1.33;;
78013;SDS011;67222;50.182;8.734;2023-04-23T20:33:55;2.25;;;1.20;;
78013;SDS011;67222;50.182;8.734;2023-04-23T20:36:21;2.10;;;0.90;;
78013;SDS011;67222;50.182;8.734;2023-04-23T20:38:54;2.28;;;1.10;;